createdAt,value
2019-04-22T00:00:41.274Z,81.40
2019-04-22T00:03:15.244Z,81.70
2019-04-22T00:06:06.621Z,81.30
2019-04-22T00:08:44.608Z,81.40
2019-04-22T00:11:21.229Z,81.50
2019-04-22T00:16:19.161Z,81.40
2019-04-22T00:21:26.380Z,81.40
2019-04-22T00:23:57.836Z,81.40
2019-04-22T00:26:28.975Z,81.40
2019-04-22T00:29:20.839Z,81.20
2019-04-22T00:31:33.200Z,81.30
2019-04-22T00:34:03.526Z,81.10
2019-04-22T00:36:41.988Z,81.20
2019-04-22T00:39:16.400Z,81.20
2019-04-22T00:41:52.096Z,80.90
2019-04-22T00:46:57.288Z,80.30
2019-04-22T00:52:01.887Z,80.70
2019-04-22T00:54:28.527Z,80.80
2019-04-22T00:57:01.537Z,80.60
2019-04-22T00:59:29.664Z,80.50
2019-04-22T01:02:07.053Z,80.70
2019-04-22T01:04:39.336Z,80.80
2019-04-22T01:07:06.078Z,80.80
2019-04-22T01:09:46.405Z,80.70
2019-04-22T01:12:13.489Z,81.00
2019-04-22T01:14:49.051Z,81.40
2019-04-22T01:17:19.333Z,81.60
2019-04-22T01:22:23.764Z,81.60
2019-04-22T01:24:50.288Z,82.20
2019-04-22T01:27:20.592Z,81.90
2019-04-22T01:29:51.787Z,82.00
2019-04-22T01:32:33.723Z,82.60
2019-04-22T01:46:07.990Z,82.80
2019-04-22T01:55:40.315Z,82.60
2019-04-22T01:58:40.652Z,82.50
2019-04-22T02:10:04.054Z,82.80
2019-04-22T02:12:45.679Z,83.00
2019-04-22T02:15:31.094Z,82.80
2019-04-22T02:18:18.672Z,82.80
2019-04-22T02:20:56.171Z,83.40
2019-04-22T02:23:47.187Z,83.00
2019-04-22T02:26:31.327Z,83.40
2019-04-22T02:29:11.010Z,83.30
2019-04-22T02:31:59.594Z,83.30
2019-04-22T02:34:50.651Z,83.00
2019-04-22T02:37:26.467Z,82.70
2019-04-22T02:40:14.549Z,82.70
2019-04-22T02:42:35.059Z,82.80
2019-04-22T02:45:07.657Z,82.60
2019-04-22T02:47:42.408Z,82.70
2019-04-22T02:50:19.754Z,83.60
2019-04-22T02:52:50.205Z,84.00
2019-04-22T02:55:23.146Z,84.30
2019-04-22T02:57:57.672Z,84.40
2019-04-22T03:00:29.495Z,85.20
2019-04-22T03:03:15.947Z,85.10
2019-04-22T03:05:36.642Z,85.20
2019-04-22T03:08:14.910Z,85.80
2019-04-22T03:10:49.059Z,86.50
2019-04-22T03:13:23.412Z,87.00
2019-04-22T03:15:57.309Z,87.10
2019-04-22T03:18:20.014Z,86.70
2019-04-22T03:20:56.801Z,86.80
2019-04-22T03:23:36.024Z,86.70
2019-04-22T03:28:32.916Z,87.00
2019-04-22T03:31:44.824Z,87.20
2019-04-22T03:34:38.279Z,87.00
2019-04-22T03:37:03.955Z,86.60
2019-04-22T03:41:50.076Z,86.40
2019-04-22T03:44:21.450Z,86.50
2019-04-22T03:46:53.549Z,86.60
2019-04-22T03:49:29.025Z,86.20
2019-04-22T03:57:22.027Z,87.20
2019-04-22T03:59:26.558Z,88.10
2019-04-22T04:07:20.479Z,88.10
2019-04-22T04:09:33.890Z,87.90
2019-04-22T04:12:03.617Z,88.00
2019-04-22T04:14:38.015Z,87.70
2019-04-22T04:17:26.635Z,87.60
2019-04-22T04:22:22.022Z,87.60
2019-04-22T04:24:58.001Z,87.00
2019-04-22T04:27:35.014Z,86.40
2019-04-22T04:29:58.062Z,86.00
2019-04-22T04:32:38.896Z,86.80
2019-04-22T04:45:23.761Z,87.30
2019-04-22T04:47:41.163Z,87.00
2019-04-22T04:50:09.255Z,87.60
2019-04-22T04:55:17.666Z,88.10
2019-04-22T04:58:10.118Z,88.40
2019-04-22T05:02:52.270Z,88.20
2019-04-22T05:07:48.450Z,88.60
2019-04-22T05:10:35.101Z,89.20
2019-04-22T05:12:56.675Z,89.50
2019-04-22T05:15:24.480Z,89.40
2019-04-22T05:17:57.848Z,89.60
2019-04-22T05:20:49.221Z,89.80
2019-04-22T05:23:16.672Z,90.10
2019-04-22T05:25:28.579Z,90.40
2019-04-22T05:27:57.590Z,90.30
2019-04-22T05:30:37.512Z,90.30
2019-04-22T05:33:01.863Z,90.00
2019-04-22T05:35:40.925Z,90.30
2019-04-22T05:38:17.746Z,90.30
2019-04-22T05:40:34.895Z,90.30
2019-04-22T05:43:14.001Z,90.40
2019-04-22T05:45:49.450Z,90.20
2019-04-22T05:48:38.320Z,90.20
2019-04-22T05:54:55.350Z,89.80
2019-04-22T05:58:10.385Z,90.20
2019-04-22T06:07:38.671Z,90.40
2019-04-22T06:12:56.315Z,89.80
2019-04-22T06:15:30.129Z,90.40
2019-04-22T06:18:20.562Z,90.00
2019-04-22T06:20:45.444Z,90.30
2019-04-22T06:23:22.117Z,89.20
2019-04-22T06:28:29.111Z,88.90
2019-04-22T06:30:57.455Z,88.60
2019-04-22T06:33:30.227Z,87.80
2019-04-22T06:35:58.898Z,87.80
2019-04-22T06:38:36.262Z,87.20
2019-04-22T06:41:03.890Z,87.40
2019-04-22T06:43:35.572Z,89.20
2019-04-22T06:46:08.382Z,87.90
2019-04-22T06:48:36.190Z,87.50
2019-04-22T06:51:18.152Z,88.20
2019-04-22T06:53:40.850Z,89.20
2019-04-22T06:56:20.644Z,90.10
2019-04-22T06:58:47.719Z,88.60
2019-04-22T07:01:39.072Z,86.70
2019-04-22T07:03:54.058Z,86.90
2019-04-22T07:06:29.573Z,87.20
2019-04-22T07:09:14.053Z,87.60
2019-04-22T07:11:28.106Z,89.30
2019-04-22T07:14:01.779Z,88.30
2019-04-22T07:19:09.351Z,87.60
2019-04-22T07:21:30.509Z,86.40
2019-04-22T07:24:27.849Z,85.50
2019-04-22T07:27:01.917Z,87.60
2019-04-22T07:29:17.313Z,85.80
2019-04-22T07:31:49.591Z,89.00
2019-04-22T07:34:25.366Z,84.00
2019-04-22T07:50:25.376Z,85.50
2019-04-22T07:53:21.888Z,88.70
2019-04-22T08:06:25.642Z,88.40
2019-04-22T08:09:37.288Z,89.40
2019-04-22T08:12:47.309Z,90.70
2019-04-22T08:15:54.154Z,91.00
2019-04-22T08:19:09.182Z,90.50
2019-04-22T08:22:14.400Z,91.10
2019-04-22T08:31:40.022Z,92.60
2019-04-22T08:34:24.594Z,93.00
2019-04-22T08:40:00.327Z,92.90
2019-04-22T08:42:53.549Z,92.60
2019-04-22T08:45:38.526Z,93.10
2019-04-22T08:48:03.016Z,94.60
2019-04-22T08:50:52.337Z,93.70
2019-04-22T08:53:39.896Z,93.60
2019-04-22T08:59:12.286Z,93.50
2019-04-22T09:01:47.067Z,93.40
2019-04-22T09:04:23.031Z,93.90
2019-04-22T09:09:55.349Z,94.40
2019-04-22T09:12:51.805Z,95.60
2019-04-22T09:15:26.627Z,94.00
2019-04-22T09:18:10.660Z,95.00
2019-04-22T09:21:04.728Z,94.40
2019-04-22T09:26:26.920Z,93.40
2019-04-22T09:29:05.066Z,94.30
2019-04-22T09:31:56.943Z,94.60
2019-04-22T09:34:34.953Z,94.10
2019-04-22T09:37:21.038Z,95.20
2019-04-22T09:40:04.585Z,93.90
2019-04-22T09:42:48.700Z,93.10
2019-04-22T09:45:27.597Z,94.40
2019-04-22T09:48:19.081Z,95.20
2019-04-22T09:50:52.478Z,94.60
2019-04-22T09:53:47.036Z,94.60
2019-04-22T09:56:27.927Z,94.20
2019-04-22T09:59:07.643Z,94.80
2019-04-22T10:02:05.653Z,94.10
2019-04-22T10:04:41.536Z,94.40
2019-04-22T10:07:21.032Z,94.30
2019-04-22T10:10:09.120Z,92.60
2019-04-22T10:12:46.798Z,93.40
2019-04-22T10:15:33.404Z,93.00
2019-04-22T10:18:18.828Z,93.20
2019-04-22T10:21:00.945Z,93.00
2019-04-22T10:23:45.771Z,93.30
2019-04-22T10:26:28.315Z,93.30
2019-04-22T10:29:11.011Z,93.50
2019-04-22T10:31:55.862Z,94.30
2019-04-22T10:34:26.287Z,94.60
2019-04-22T10:37:02.753Z,94.60
2019-04-22T10:39:52.524Z,94.70
2019-04-22T10:42:29.262Z,95.20
2019-04-22T10:45:12.371Z,94.50
2019-04-22T10:47:54.455Z,94.40
2019-04-22T10:50:38.032Z,93.90
2019-04-22T10:53:21.665Z,93.60
2019-04-22T10:56:03.478Z,93.30
2019-04-22T10:58:46.661Z,93.70
2019-04-22T11:01:29.582Z,93.30
2019-04-22T11:04:13.133Z,94.90
2019-04-22T11:07:00.827Z,93.30
2019-04-22T11:09:49.326Z,93.00
2019-04-22T11:12:25.171Z,92.50
2019-04-22T11:15:07.703Z,93.10
2019-04-22T11:17:51.415Z,93.30
2019-04-22T11:20:33.771Z,93.70
2019-04-22T11:23:16.408Z,93.30
2019-04-22T11:25:59.679Z,94.80
2019-04-22T11:28:43.304Z,93.40
2019-04-22T11:31:26.469Z,94.00
2019-04-22T11:34:08.943Z,93.40
2019-04-22T11:36:52.596Z,93.60
2019-04-22T11:39:36.532Z,93.90
2019-04-22T11:42:18.331Z,94.80
2019-04-22T11:45:01.066Z,93.60
2019-04-22T11:47:43.362Z,94.50
2019-04-22T11:50:26.147Z,93.50
2019-04-22T11:53:09.053Z,95.10
2019-04-22T11:55:52.957Z,94.60
2019-04-22T11:58:35.427Z,93.70
2019-04-22T12:01:06.839Z,93.20
2019-04-22T12:03:38.008Z,93.00
2019-04-22T12:06:10.175Z,93.60
2019-04-22T12:08:41.555Z,94.20
2019-04-22T12:11:13.683Z,95.40
2019-04-22T12:13:44.187Z,95.20
2019-04-22T12:16:14.715Z,95.90
2019-04-22T12:18:45.226Z,95.80
2019-04-22T12:21:17.032Z,96.40
2019-04-22T12:23:48.698Z,95.50
2019-04-22T12:26:20.996Z,94.90
2019-04-22T12:28:51.382Z,94.80
2019-04-22T12:31:21.943Z,93.60
2019-04-22T12:33:53.071Z,95.10
2019-04-22T12:36:24.527Z,95.10
2019-04-22T12:38:55.619Z,93.90
2019-04-22T12:41:27.688Z,95.10
2019-04-22T12:43:59.005Z,95.80
2019-04-22T12:46:30.162Z,95.10
2019-04-22T12:49:02.270Z,95.40
2019-04-22T12:51:33.309Z,95.10
2019-04-22T12:54:04.026Z,94.40
2019-04-22T12:56:35.466Z,94.30
2019-04-22T12:59:05.990Z,93.70
2019-04-22T13:01:37.201Z,94.00
2019-04-22T13:04:10.183Z,93.50
2019-04-22T13:06:39.969Z,93.10
2019-04-22T13:09:10.632Z,93.20
2019-04-22T13:11:42.741Z,93.90
2019-04-22T13:14:14.807Z,93.70
2019-04-22T13:16:47.137Z,93.90
2019-04-22T13:19:20.798Z,93.20
2019-04-22T13:21:50.996Z,93.30
2019-04-22T13:24:21.789Z,92.80
2019-04-22T13:26:53.011Z,92.60
2019-04-22T13:29:23.501Z,92.90
2019-04-22T13:31:55.081Z,93.90
2019-04-22T13:34:31.652Z,93.60
2019-04-22T13:36:59.000Z,93.80
2019-04-22T13:39:29.521Z,94.10
2019-04-22T13:42:03.940Z,94.10
2019-04-22T13:44:33.585Z,93.70
2019-04-22T13:47:19.778Z,94.50
2019-04-22T13:50:08.812Z,95.20
2019-04-22T13:52:53.589Z,94.60
2019-04-22T13:55:05.651Z,95.10
2019-04-22T13:57:34.340Z,94.60
2019-04-22T13:59:52.400Z,95.20
2019-04-22T14:02:34.910Z,94.40
2019-04-22T14:05:06.517Z,94.60
2019-04-22T14:07:37.210Z,95.10
2019-04-22T14:10:08.733Z,94.40
2019-04-22T14:12:42.532Z,95.00
2019-04-22T14:15:15.937Z,95.40
2019-04-22T14:17:47.197Z,94.40
2019-04-22T14:20:18.799Z,95.70
2019-04-22T14:22:50.457Z,94.80
2019-04-22T14:25:21.055Z,94.50
2019-04-22T14:28:00.238Z,95.30
2019-04-22T14:30:24.456Z,95.10
2019-04-22T14:32:55.965Z,94.70
2019-04-22T14:35:27.111Z,95.80
2019-04-22T14:37:58.244Z,95.40
2019-04-22T14:40:30.466Z,95.90
2019-04-22T14:43:26.531Z,94.20
2019-04-22T14:46:07.069Z,95.40
2019-04-22T14:48:36.291Z,95.20
2019-04-22T14:51:00.646Z,94.70
2019-04-22T14:53:30.831Z,95.50
2019-04-22T14:55:46.457Z,94.60
2019-04-22T14:58:19.232Z,94.70
2019-04-22T15:00:51.488Z,95.20
2019-04-22T15:03:22.079Z,95.20
2019-04-22T15:05:54.425Z,94.40
2019-04-22T15:08:25.071Z,95.50
2019-04-22T15:10:58.254Z,95.20
2019-04-22T15:13:29.446Z,94.40
2019-04-22T15:16:21.975Z,94.80
2019-04-22T15:18:58.029Z,94.40
2019-04-22T15:21:28.962Z,93.60
2019-04-22T15:24:18.630Z,94.80
2019-04-22T15:26:50.620Z,94.50
2019-04-22T15:29:21.285Z,94.10
2019-04-22T15:31:53.377Z,94.80
2019-04-22T15:34:24.936Z,94.50
2019-04-22T15:36:56.013Z,94.70
2019-04-22T15:39:29.277Z,95.00
2019-04-22T15:42:09.772Z,93.50
2019-04-22T15:44:33.872Z,94.20
2019-04-22T15:47:05.020Z,93.90
2019-04-22T15:49:36.013Z,93.20
2019-04-22T15:52:08.018Z,93.00
2019-04-22T15:54:39.429Z,93.80
2019-04-22T15:57:10.817Z,94.10
2019-04-22T15:59:59.253Z,93.10
2019-04-22T16:02:14.008Z,92.00
2019-04-22T16:04:44.645Z,93.10
2019-04-22T16:07:16.856Z,93.00
2019-04-22T16:09:47.861Z,93.60
2019-04-22T16:12:27.430Z,94.80
2019-04-22T16:14:56.185Z,94.00
2019-04-22T16:17:24.264Z,94.40
2019-04-22T16:19:55.264Z,94.20
2019-04-22T16:22:27.454Z,94.50
2019-04-22T16:25:08.996Z,92.80
2019-04-22T16:27:40.453Z,93.10
2019-04-22T16:30:11.075Z,94.40
2019-04-22T16:32:41.547Z,93.70
2019-04-22T16:35:12.733Z,92.90
2019-04-22T16:37:43.395Z,93.50
2019-04-22T16:40:14.718Z,92.90
2019-04-22T16:42:52.457Z,92.70
2019-04-22T16:45:17.782Z,93.40
2019-04-22T16:47:49.347Z,92.90
2019-04-22T16:50:20.925Z,93.20
2019-04-22T16:52:52.366Z,93.20
2019-04-22T16:55:23.125Z,93.50
2019-04-22T16:57:54.654Z,93.00
2019-04-22T17:00:26.798Z,93.40
2019-04-22T17:03:34.448Z,92.80
2019-04-22T17:06:25.524Z,93.30
2019-04-22T17:08:57.125Z,93.10
2019-04-22T17:11:27.787Z,93.50
2019-04-22T17:13:59.372Z,92.60
2019-04-22T17:16:30.602Z,92.20
2019-04-22T17:19:02.587Z,92.70
2019-04-22T17:21:33.179Z,92.80
2019-04-22T17:24:03.789Z,92.50
2019-04-22T17:26:34.566Z,92.90
2019-04-22T17:29:06.486Z,92.40
2019-04-22T17:31:43.216Z,92.40
2019-04-22T17:34:09.677Z,92.00
2019-04-22T17:36:40.590Z,91.70
2019-04-22T17:39:24.785Z,91.90
2019-04-22T17:42:02.378Z,91.60
2019-04-22T17:44:42.325Z,91.00
2019-04-22T17:47:32.928Z,90.50
2019-04-22T17:50:11.521Z,90.90
2019-04-22T17:52:51.148Z,91.00
2019-04-22T17:55:19.578Z,90.50
2019-04-22T17:57:49.541Z,90.00
2019-04-22T18:00:18.941Z,90.00
2019-04-22T18:02:50.098Z,90.70
2019-04-22T18:05:13.018Z,90.40
2019-04-22T18:08:07.250Z,90.40
2019-04-22T18:10:36.215Z,90.10
2019-04-22T18:13:15.767Z,89.80
2019-04-22T18:15:45.250Z,90.40
2019-04-22T18:18:18.651Z,90.10
2019-04-22T18:20:39.097Z,89.80
2019-04-22T18:23:05.358Z,88.10
2019-04-22T18:25:53.805Z,88.60
2019-04-22T18:28:46.449Z,89.30
2019-04-22T18:31:11.983Z,88.80
2019-04-22T18:33:43.321Z,89.50
2019-04-22T18:36:14.135Z,89.30
2019-04-22T18:39:11.166Z,88.50
2019-04-22T18:41:41.286Z,88.10
2019-04-22T18:44:25.131Z,86.50
2019-04-22T18:46:52.296Z,87.00
2019-04-22T18:49:30.969Z,86.70
2019-04-22T18:52:48.903Z,86.10
2019-04-22T18:55:27.489Z,86.70
2019-04-22T18:58:11.623Z,86.20
2019-04-22T19:00:36.333Z,85.10
2019-04-22T19:03:15.696Z,86.30
2019-04-22T19:06:09.452Z,86.70
2019-04-22T19:08:33.359Z,84.20
2019-04-22T19:11:11.075Z,80.60
2019-04-22T19:18:50.153Z,82.90
2019-04-22T19:21:16.101Z,83.10
2019-04-22T19:23:49.815Z,80.70
2019-04-22T19:26:30.853Z,80.80
2019-04-22T19:28:55.514Z,81.90
2019-04-22T19:31:24.792Z,79.10
2019-04-22T19:34:00.845Z,82.30
2019-04-22T19:36:32.323Z,83.10
2019-04-22T19:45:45.906Z,83.30
2019-04-22T20:02:01.093Z,84.50
2019-04-22T20:08:31.006Z,86.50
2019-04-22T20:11:19.532Z,85.70
2019-04-22T20:14:02.547Z,86.50
2019-04-22T20:16:41.217Z,86.80
2019-04-22T20:19:33.756Z,88.90
2019-04-22T20:22:09.706Z,87.50
2019-04-22T20:24:47.599Z,85.50
2019-04-22T20:27:41.618Z,85.50
2019-04-22T20:30:23.204Z,87.90
2019-04-22T20:33:01.881Z,89.50
2019-04-22T20:35:50.312Z,89.80
2019-04-22T20:38:34.317Z,90.90
2019-04-22T20:41:15.886Z,88.00
2019-04-22T20:44:04.714Z,89.40
2019-04-22T20:46:47.299Z,89.50
2019-04-22T20:49:30.996Z,90.70
2019-04-22T20:52:20.798Z,89.20
2019-04-22T20:54:54.428Z,90.20
2019-04-22T20:57:50.117Z,89.50
2019-04-22T21:00:20.063Z,90.40
2019-04-22T21:02:59.844Z,91.40
2019-04-22T21:05:43.106Z,90.00
2019-04-22T21:08:38.620Z,91.00
2019-04-22T21:11:19.338Z,90.40
2019-04-22T21:14:01.455Z,90.60
2019-04-22T21:16:51.686Z,89.80
2019-04-22T21:19:41.690Z,85.60
2019-04-22T21:22:18.071Z,87.70
2019-04-22T21:24:57.799Z,90.30
2019-04-22T21:30:26.445Z,86.00
2019-04-22T21:33:08.383Z,85.10
2019-04-22T21:38:37.253Z,86.40
2019-04-22T21:41:20.047Z,87.50
2019-04-22T21:44:04.134Z,88.20
2019-04-22T21:47:01.015Z,88.70
2019-04-22T21:49:35.479Z,89.70
2019-04-22T21:52:24.374Z,88.50
2019-04-22T21:55:11.697Z,87.30
2019-04-22T22:01:18.968Z,89.00
2019-04-22T22:04:16.128Z,88.90
2019-04-22T22:06:45.290Z,90.10
2019-04-22T22:09:42.967Z,90.00
2019-04-22T22:12:26.518Z,90.20
2019-04-22T22:15:07.249Z,89.30
2019-04-22T22:17:51.152Z,90.40
2019-04-22T22:20:40.963Z,87.90
2019-04-22T22:23:25.360Z,87.10
2019-04-22T22:26:04.096Z,86.60
2019-04-22T22:34:20.990Z,86.40
2019-04-22T22:36:51.654Z,84.70
2019-04-22T22:39:38.121Z,83.00
2019-04-22T22:42:11.970Z,84.50
2019-04-22T22:45:00.674Z,84.40
2019-04-22T22:47:53.519Z,85.30
2019-04-22T22:50:38.199Z,84.20
2019-04-22T22:56:10.470Z,88.30
2019-04-22T22:58:54.058Z,86.50
2019-04-22T23:01:41.106Z,85.40
2019-04-22T23:04:23.790Z,83.80
2019-04-22T23:07:15.116Z,87.60
2019-04-22T23:09:41.848Z,88.00
2019-04-22T23:14:46.601Z,85.60
2019-04-22T23:17:01.202Z,87.90
2019-04-22T23:19:24.098Z,88.00
2019-04-22T23:22:01.591Z,87.00
2019-04-22T23:25:16.040Z,88.20
2019-04-22T23:27:53.980Z,88.30
2019-04-22T23:30:38.893Z,88.70
2019-04-22T23:33:27.812Z,87.60
2019-04-22T23:36:10.649Z,87.10
2019-04-22T23:38:53.486Z,86.80
2019-04-22T23:46:41.597Z,89.30
2019-04-22T23:49:17.456Z,90.60
2019-04-22T23:52:02.735Z,90.20
2019-04-22T23:54:31.591Z,90.20
2019-04-22T23:56:52.517Z,90.40
2019-04-22T23:59:44.517Z,90.70
